createdAt,value
2019-05-05T00:00:51.124Z,950.68
2019-05-05T00:01:51.906Z,950.67
2019-05-05T00:02:51.097Z,950.75
2019-05-05T00:03:51.126Z,950.72
2019-05-05T00:04:51.101Z,950.83
2019-05-05T00:05:51.067Z,950.69
2019-05-05T00:06:51.056Z,950.75
2019-05-05T00:07:51.057Z,950.81
2019-05-05T00:08:51.084Z,950.87
2019-05-05T00:09:51.025Z,950.87
2019-05-05T00:10:51.015Z,950.85
2019-05-05T00:11:51.006Z,950.92
2019-05-05T00:12:51.012Z,950.92
2019-05-05T00:13:51.036Z,950.95
2019-05-05T00:14:50.976Z,950.94
2019-05-05T00:15:50.965Z,950.97
2019-05-05T00:16:50.952Z,950.92
2019-05-05T00:17:50.978Z,950.95
2019-05-05T00:18:50.924Z,950.88
2019-05-05T00:19:50.926Z,950.92
2019-05-05T00:20:50.935Z,950.93
2019-05-05T00:21:50.894Z,950.93
2019-05-05T00:22:50.886Z,950.86
2019-05-05T00:23:50.875Z,950.90
2019-05-05T00:24:50.864Z,950.87
2019-05-05T00:25:50.913Z,950.95
2019-05-05T00:26:50.843Z,950.86
2019-05-05T00:27:50.826Z,950.92
2019-05-05T00:28:50.821Z,950.91
2019-05-05T00:29:50.806Z,950.96
2019-05-05T00:30:50.888Z,951.01
2019-05-05T00:31:50.783Z,950.98
2019-05-05T00:32:50.774Z,951.02
2019-05-05T00:33:50.763Z,951.06
2019-05-05T00:34:50.784Z,951.00
2019-05-05T00:35:50.774Z,951.05
2019-05-05T00:36:50.733Z,950.98
2019-05-05T00:37:50.728Z,950.98
2019-05-05T00:38:50.713Z,951.06
2019-05-05T00:39:50.731Z,951.03
2019-05-05T00:40:50.695Z,951.10
2019-05-05T00:41:50.681Z,951.06
2019-05-05T00:42:50.662Z,951.09
2019-05-05T00:43:50.652Z,951.08
2019-05-05T00:44:50.770Z,951.16
2019-05-05T00:45:50.660Z,951.03
2019-05-05T00:46:50.622Z,951.08
2019-05-05T00:47:50.614Z,951.11
2019-05-05T00:48:50.615Z,951.16
2019-05-05T00:49:50.622Z,951.16
2019-05-05T00:50:51.864Z,951.12
2019-05-05T00:51:50.578Z,951.08
2019-05-05T00:52:50.606Z,951.14
2019-05-05T00:53:50.577Z,951.14
2019-05-05T00:54:50.595Z,951.19
2019-05-05T00:55:50.578Z,951.08
2019-05-05T00:56:50.520Z,951.02
2019-05-05T00:57:50.521Z,951.03
2019-05-05T00:58:50.498Z,951.16
2019-05-05T00:59:50.511Z,951.17
2019-05-05T01:00:50.470Z,951.15
2019-05-05T01:01:50.476Z,951.16
2019-05-05T01:02:50.481Z,951.17
2019-05-05T01:03:50.440Z,951.17
2019-05-05T01:04:50.431Z,951.11
2019-05-05T01:05:50.419Z,951.11
2019-05-05T01:06:50.409Z,951.20
2019-05-05T01:07:50.456Z,951.20
2019-05-05T01:08:50.379Z,951.22
2019-05-05T01:09:50.387Z,951.18
2019-05-05T01:10:50.360Z,951.26
2019-05-05T01:11:50.349Z,951.28
2019-05-05T01:12:50.371Z,951.33
2019-05-05T01:13:50.350Z,951.28
2019-05-05T01:14:50.319Z,951.37
2019-05-05T01:15:50.309Z,951.31
2019-05-05T01:16:50.319Z,951.37
2019-05-05T01:17:50.349Z,951.38
2019-05-05T01:18:50.282Z,951.38
2019-05-05T01:20:01.308Z,951.36
2019-05-05T01:20:51.296Z,951.40
2019-05-05T01:21:50.256Z,951.41
2019-05-05T01:22:50.270Z,951.39
2019-05-05T01:23:50.219Z,951.46
2019-05-05T01:24:50.211Z,951.36
2019-05-05T01:25:50.198Z,951.41
2019-05-05T01:26:50.198Z,951.42
2019-05-05T01:27:50.208Z,951.52
2019-05-05T01:28:50.190Z,951.48
2019-05-05T01:29:50.189Z,951.56
2019-05-05T01:30:50.207Z,951.50
2019-05-05T01:31:50.147Z,951.56
2019-05-05T01:32:50.138Z,951.47
2019-05-05T01:33:50.130Z,951.53
2019-05-05T01:34:50.143Z,951.54
2019-05-05T01:35:50.138Z,951.49
2019-05-05T01:36:50.078Z,951.53
2019-05-05T01:37:50.091Z,951.60
2019-05-05T01:38:50.067Z,951.48
2019-05-05T01:39:50.048Z,951.51
2019-05-05T01:40:50.087Z,951.62
2019-05-05T01:41:50.026Z,951.57
2019-05-05T01:42:50.017Z,951.64
2019-05-05T01:43:50.007Z,951.56
2019-05-05T01:44:49.998Z,951.67
2019-05-05T01:45:50.023Z,951.53
2019-05-05T01:46:49.966Z,951.61
2019-05-05T01:47:50.062Z,951.57
2019-05-05T01:48:49.948Z,951.51
2019-05-05T01:49:49.958Z,951.54
2019-05-05T01:50:49.957Z,951.54
2019-05-05T01:51:49.960Z,951.52
2019-05-05T01:52:49.908Z,951.51
2019-05-05T01:53:49.905Z,951.59
2019-05-05T01:54:49.885Z,951.60
2019-05-05T01:55:49.890Z,951.57
2019-05-05T01:56:52.298Z,951.51
2019-05-05T01:57:49.875Z,951.56
2019-05-05T01:58:49.897Z,951.64
2019-05-05T01:59:49.872Z,951.59
2019-05-05T02:00:49.894Z,951.60
2019-05-05T02:01:49.852Z,951.53
2019-05-05T02:02:49.893Z,951.60
2019-05-05T02:03:49.885Z,951.59
2019-05-05T02:04:49.787Z,951.63
2019-05-05T02:05:49.874Z,951.74
2019-05-05T02:06:49.791Z,951.64
2019-05-05T02:07:49.744Z,951.59
2019-05-05T02:08:49.734Z,951.58
2019-05-05T02:09:49.745Z,951.62
2019-05-05T02:10:49.779Z,951.58
2019-05-05T02:11:49.711Z,951.56
2019-05-05T02:12:49.693Z,951.54
2019-05-05T02:13:49.690Z,951.55
2019-05-05T02:14:49.684Z,951.53
2019-05-05T02:15:49.692Z,951.49
2019-05-05T02:16:49.653Z,951.44
2019-05-05T02:17:49.657Z,951.50
2019-05-05T02:18:49.632Z,951.44
2019-05-05T02:19:49.623Z,951.47
2019-05-05T02:20:49.651Z,951.44
2019-05-05T02:21:49.600Z,951.44
2019-05-05T02:22:49.613Z,951.32
2019-05-05T02:23:49.612Z,951.39
2019-05-05T02:24:49.572Z,951.38
2019-05-05T02:25:49.602Z,951.35
2019-05-05T02:26:49.570Z,951.35
2019-05-05T02:27:49.529Z,951.38
2019-05-05T02:28:49.565Z,951.39
2019-05-05T02:29:49.566Z,951.35
2019-05-05T02:30:49.522Z,951.39
2019-05-05T02:31:49.522Z,951.40
2019-05-05T02:32:49.485Z,951.36
2019-05-05T02:33:49.483Z,951.36
2019-05-05T02:34:49.502Z,951.43
2019-05-05T02:35:50.357Z,951.38
2019-05-05T02:36:50.625Z,951.38
2019-05-05T02:37:49.430Z,951.44
2019-05-05T02:38:49.439Z,951.43
2019-05-05T02:39:58.063Z,951.46
2019-05-05T02:40:50.415Z,951.44
2019-05-05T02:41:49.472Z,951.38
2019-05-05T02:42:49.379Z,951.49
2019-05-05T02:43:49.404Z,951.46
2019-05-05T02:44:49.357Z,951.37
2019-05-05T02:45:49.337Z,951.47
2019-05-05T02:46:49.360Z,951.45
2019-05-05T02:47:49.319Z,951.47
2019-05-05T02:48:49.300Z,951.51
2019-05-05T02:49:49.298Z,951.45
2019-05-05T02:50:55.868Z,951.46
2019-05-05T02:51:50.319Z,951.48
2019-05-05T02:52:49.249Z,951.52
2019-05-05T02:53:49.248Z,951.57
2019-05-05T02:54:49.254Z,951.58
2019-05-05T02:55:49.231Z,951.61
2019-05-05T02:56:49.228Z,951.56
2019-05-05T02:57:49.247Z,951.49
2019-05-05T02:58:49.188Z,951.58
2019-05-05T02:59:49.199Z,951.55
2019-05-05T03:00:49.180Z,951.57
2019-05-05T03:01:49.177Z,951.62
2019-05-05T03:02:49.181Z,951.59
2019-05-05T03:03:49.141Z,951.67
2019-05-05T03:04:49.127Z,951.57
2019-05-05T03:05:49.121Z,951.68
2019-05-05T03:06:49.122Z,951.67
2019-05-05T03:07:49.127Z,951.63
2019-05-05T03:08:49.087Z,951.71
2019-05-05T03:09:49.076Z,951.74
2019-05-05T03:10:49.069Z,951.70
2019-05-05T03:11:49.098Z,951.74
2019-05-05T03:12:49.100Z,951.72
2019-05-05T03:13:49.074Z,951.69
2019-05-05T03:14:49.037Z,951.70
2019-05-05T03:15:49.005Z,951.77
2019-05-05T03:16:48.997Z,951.74
2019-05-05T03:17:49.035Z,951.78
2019-05-05T03:18:49.006Z,951.82
2019-05-05T03:19:48.976Z,951.71
2019-05-05T03:21:01.576Z,951.85
2019-05-05T03:21:49.944Z,951.82
2019-05-05T03:22:48.939Z,951.88
2019-05-05T03:23:48.959Z,951.90
2019-05-05T03:24:48.916Z,951.86
2019-05-05T03:25:48.904Z,951.84
2019-05-05T03:26:48.895Z,951.91
2019-05-05T03:27:48.905Z,951.96
2019-05-05T03:28:48.915Z,951.89
2019-05-05T03:29:48.864Z,951.93
2019-05-05T03:30:48.856Z,951.90
2019-05-05T03:31:48.857Z,951.86
2019-05-05T03:32:48.841Z,951.82
2019-05-05T03:33:48.858Z,951.84
2019-05-05T03:34:48.795Z,951.91
2019-05-05T03:35:48.795Z,951.90
2019-05-05T03:36:48.784Z,952.00
2019-05-05T03:37:48.772Z,951.93
2019-05-05T03:38:48.800Z,951.96
2019-05-05T03:39:48.756Z,951.94
2019-05-05T03:40:48.741Z,951.96
2019-05-05T03:41:48.749Z,951.99
2019-05-05T03:42:48.735Z,951.92
2019-05-05T03:43:48.744Z,951.99
2019-05-05T03:44:48.716Z,951.99
2019-05-05T03:45:48.693Z,952.03
2019-05-05T03:46:48.729Z,951.98
2019-05-05T03:47:48.663Z,952.00
2019-05-05T03:48:48.740Z,952.00
2019-05-05T03:49:48.670Z,952.10
2019-05-05T03:50:48.656Z,952.07
2019-05-05T03:51:48.660Z,952.02
2019-05-05T03:52:48.638Z,952.03
2019-05-05T03:53:48.663Z,952.03
2019-05-05T03:54:48.582Z,951.98
2019-05-05T03:55:48.574Z,951.99
2019-05-05T03:56:48.563Z,952.01
2019-05-05T03:57:48.674Z,952.01
2019-05-05T03:58:48.590Z,951.92
2019-05-05T03:59:48.530Z,952.00
2019-05-05T04:00:48.543Z,951.95
2019-05-05T04:01:48.516Z,951.99
2019-05-05T04:02:48.502Z,952.00
2019-05-05T04:03:48.521Z,952.06
2019-05-05T04:04:48.480Z,951.97
2019-05-05T04:05:48.463Z,952.02
2019-05-05T04:06:48.463Z,952.02
2019-05-05T04:07:48.445Z,951.98
2019-05-05T04:08:48.461Z,952.05
2019-05-05T04:09:48.421Z,952.05
2019-05-05T04:10:48.460Z,952.08
2019-05-05T04:11:48.410Z,952.11
2019-05-05T04:12:48.471Z,952.12
2019-05-05T04:13:48.410Z,952.10
2019-05-05T04:14:48.405Z,952.06
2019-05-05T04:15:48.410Z,952.10
2019-05-05T04:16:48.410Z,952.06
2019-05-05T04:17:48.419Z,952.15
2019-05-05T04:18:48.330Z,952.18
2019-05-05T04:19:48.318Z,952.12
2019-05-05T04:20:48.308Z,952.20
2019-05-05T04:21:48.311Z,952.11
2019-05-05T04:22:48.337Z,952.14
2019-05-05T04:23:48.279Z,952.21
2019-05-05T04:24:48.291Z,952.26
2019-05-05T04:25:48.276Z,952.27
2019-05-05T04:26:48.266Z,952.26
2019-05-05T04:27:48.289Z,952.18
2019-05-05T04:28:48.218Z,952.29
2019-05-05T04:29:48.219Z,952.26
2019-05-05T04:30:48.188Z,952.25
2019-05-05T04:31:48.189Z,952.25
2019-05-05T04:32:48.199Z,952.29
2019-05-05T04:33:48.217Z,952.27
2019-05-05T04:34:48.153Z,952.28
2019-05-05T04:35:48.190Z,952.31
2019-05-05T04:36:48.129Z,952.32
2019-05-05T04:37:48.128Z,952.36
2019-05-05T04:38:48.138Z,952.36
2019-05-05T04:39:48.118Z,952.35
2019-05-05T04:40:48.088Z,952.34
2019-05-05T04:41:48.081Z,952.39
2019-05-05T04:42:48.096Z,952.41
2019-05-05T04:43:48.095Z,952.31
2019-05-05T04:44:48.047Z,952.40
2019-05-05T04:45:48.048Z,952.49
2019-05-05T04:46:48.019Z,952.54
2019-05-05T04:47:48.019Z,952.53
2019-05-05T04:48:48.050Z,952.55
2019-05-05T04:49:48.007Z,952.46
2019-05-05T04:50:47.976Z,952.49
2019-05-05T04:51:50.405Z,952.56
2019-05-05T04:52:47.966Z,952.53
2019-05-05T04:53:48.004Z,952.62
2019-05-05T04:54:47.977Z,952.53
2019-05-05T04:55:47.969Z,952.64
2019-05-05T04:56:47.918Z,952.65
2019-05-05T04:57:47.904Z,952.62
2019-05-05T04:58:47.908Z,952.73
2019-05-05T04:59:47.998Z,952.67
2019-05-05T05:00:47.873Z,952.71
2019-05-05T05:01:47.857Z,952.70
2019-05-05T05:02:47.859Z,952.71
2019-05-05T05:03:47.840Z,952.65
2019-05-05T05:04:47.863Z,952.68
2019-05-05T05:05:47.814Z,952.68
2019-05-05T05:06:47.818Z,952.69
2019-05-05T05:07:47.795Z,952.68
2019-05-05T05:08:47.785Z,952.67
2019-05-05T05:09:47.817Z,952.70
2019-05-05T05:10:47.766Z,952.71
2019-05-05T05:11:47.745Z,952.76
2019-05-05T05:12:47.754Z,952.76
2019-05-05T05:13:47.727Z,952.78
2019-05-05T05:14:47.745Z,952.72
2019-05-05T05:15:47.706Z,952.67
2019-05-05T05:16:47.733Z,952.74
2019-05-05T05:17:47.708Z,952.74
2019-05-05T05:18:47.677Z,952.74
2019-05-05T05:19:47.672Z,952.73
2019-05-05T05:20:47.677Z,952.76
2019-05-05T05:21:58.282Z,952.78
2019-05-05T05:22:48.641Z,952.78
2019-05-05T05:23:47.646Z,952.80
2019-05-05T05:24:47.633Z,952.78
2019-05-05T05:25:47.643Z,952.74
2019-05-05T05:26:47.641Z,952.76
2019-05-05T05:27:47.590Z,952.72
2019-05-05T05:28:47.576Z,952.71
2019-05-05T05:29:47.592Z,952.77
2019-05-05T05:30:47.542Z,952.80
2019-05-05T05:31:47.534Z,952.74
2019-05-05T05:32:47.523Z,952.78
2019-05-05T05:33:47.518Z,952.73
2019-05-05T05:34:47.565Z,952.74
2019-05-05T05:35:47.490Z,952.73
2019-05-05T05:36:47.480Z,952.71
2019-05-05T05:37:47.470Z,952.78
2019-05-05T05:38:47.476Z,952.69
2019-05-05T05:39:47.492Z,952.79
2019-05-05T05:40:47.443Z,952.77
2019-05-05T05:41:47.431Z,952.76
2019-05-05T05:42:47.449Z,952.85
2019-05-05T05:43:47.401Z,952.79
2019-05-05T05:44:47.430Z,952.92
2019-05-05T05:45:47.394Z,952.87
2019-05-05T05:46:47.370Z,952.85
2019-05-05T05:47:47.368Z,952.97
2019-05-05T05:48:47.355Z,952.97
2019-05-05T05:49:47.370Z,953.02
2019-05-05T05:50:47.338Z,953.00
2019-05-05T05:51:47.383Z,953.06
2019-05-05T05:52:47.309Z,953.00
2019-05-05T05:53:47.301Z,953.04
2019-05-05T05:54:47.290Z,952.97
2019-05-05T05:55:47.280Z,953.05
2019-05-05T05:56:47.298Z,953.06
2019-05-05T05:57:47.261Z,953.03
2019-05-05T05:58:47.239Z,953.11
2019-05-05T05:59:47.239Z,953.12
2019-05-05T06:00:47.286Z,953.12
2019-05-05T06:01:47.215Z,953.11
2019-05-05T06:02:47.199Z,953.17
2019-05-05T06:03:47.209Z,953.17
2019-05-05T06:04:47.169Z,953.22
2019-05-05T06:05:47.207Z,953.28
2019-05-05T06:06:47.151Z,953.21
2019-05-05T06:07:47.150Z,953.21
2019-05-05T06:08:47.139Z,953.22
2019-05-05T06:09:47.130Z,953.29
2019-05-05T06:10:47.164Z,953.29
2019-05-05T06:11:47.114Z,953.36
2019-05-05T06:12:47.120Z,953.31
2019-05-05T06:13:47.625Z,953.30
2019-05-05T06:14:47.111Z,953.35
2019-05-05T06:15:47.058Z,953.39
2019-05-05T06:16:47.050Z,953.35
2019-05-05T06:17:47.035Z,953.36
2019-05-05T06:18:47.018Z,953.35
2019-05-05T06:19:47.116Z,953.35
2019-05-05T06:20:46.997Z,953.40
2019-05-05T06:21:47.000Z,953.45
2019-05-05T06:22:47.106Z,953.43
2019-05-05T06:23:46.975Z,953.52
2019-05-05T06:24:46.996Z,953.48
2019-05-05T06:25:46.961Z,953.51
2019-05-05T06:26:46.951Z,953.52
2019-05-05T06:27:46.947Z,953.49
2019-05-05T06:28:46.917Z,953.56
2019-05-05T06:29:46.947Z,953.55
2019-05-05T06:30:46.916Z,953.49
2019-05-05T06:31:46.887Z,953.65
2019-05-05T06:32:46.876Z,953.64
2019-05-05T06:33:46.866Z,953.61
2019-05-05T06:34:46.885Z,953.60
2019-05-05T06:35:47.351Z,953.60
2019-05-05T06:36:46.881Z,953.71
2019-05-05T06:37:46.824Z,953.73
2019-05-05T06:38:46.816Z,953.71
2019-05-05T06:39:46.808Z,953.62
2019-05-05T06:40:46.819Z,953.61
2019-05-05T06:41:46.815Z,953.65
2019-05-05T06:42:46.765Z,953.63
2019-05-05T06:43:46.765Z,953.65
2019-05-05T06:44:46.757Z,953.66
2019-05-05T06:45:46.932Z,953.69
2019-05-05T06:46:46.723Z,953.61
2019-05-05T06:47:46.733Z,953.66
2019-05-05T06:48:46.707Z,953.63
2019-05-05T06:49:46.693Z,953.59
2019-05-05T06:50:46.733Z,953.64
2019-05-05T06:51:46.663Z,953.69
2019-05-05T06:52:47.262Z,953.71
2019-05-05T06:53:46.644Z,953.70
2019-05-05T06:54:46.654Z,953.78
2019-05-05T06:55:46.663Z,953.69
2019-05-05T06:56:46.624Z,953.81
2019-05-05T06:57:46.638Z,953.82
2019-05-05T06:58:46.586Z,953.80
2019-05-05T06:59:46.614Z,953.78
2019-05-05T07:00:46.577Z,953.81
2019-05-05T07:01:46.554Z,953.77
2019-05-05T07:02:46.560Z,953.77
2019-05-05T07:03:46.543Z,953.73
2019-05-05T07:04:46.563Z,953.79
2019-05-05T07:05:46.513Z,953.78
2019-05-05T07:06:54.159Z,953.83
2019-05-05T07:07:47.493Z,953.88
2019-05-05T07:08:46.504Z,953.84
2019-05-05T07:09:46.504Z,953.94
2019-05-05T07:10:46.468Z,953.88
2019-05-05T07:11:46.443Z,953.88
2019-05-05T07:12:46.437Z,953.89
2019-05-05T07:13:46.496Z,953.90
2019-05-05T07:14:46.420Z,953.92
2019-05-05T07:15:46.454Z,954.01
2019-05-05T07:16:46.401Z,953.99
2019-05-05T07:17:46.385Z,953.99
2019-05-05T07:18:46.473Z,954.02
2019-05-05T07:19:46.364Z,953.97
2019-05-05T07:20:46.354Z,954.03
2019-05-05T07:21:46.357Z,953.91
2019-05-05T07:22:58.849Z,954.09
2019-05-05T07:23:47.361Z,954.03
2019-05-05T07:24:46.307Z,954.10
2019-05-05T07:25:46.320Z,954.09
2019-05-05T07:26:46.302Z,954.09
2019-05-05T07:27:46.282Z,954.07
2019-05-05T07:28:46.318Z,954.03
2019-05-05T07:29:46.288Z,954.04
2019-05-05T07:30:46.251Z,954.16
2019-05-05T07:31:46.241Z,954.18
2019-05-05T07:32:46.221Z,954.12
2019-05-05T07:33:46.211Z,954.15
2019-05-05T07:34:46.272Z,954.12
2019-05-05T07:35:55.984Z,954.11
2019-05-05T07:36:47.189Z,954.11
2019-05-05T07:37:46.300Z,954.15
2019-05-05T07:38:46.190Z,954.12
2019-05-05T07:39:46.176Z,954.11
2019-05-05T07:40:46.171Z,954.17
2019-05-05T07:41:46.189Z,954.12
2019-05-05T07:42:46.217Z,954.15
2019-05-05T07:43:46.146Z,954.11
2019-05-05T07:44:46.103Z,954.17
2019-05-05T07:45:46.102Z,954.17
2019-05-05T07:46:46.091Z,954.27
2019-05-05T07:47:47.479Z,954.21
2019-05-05T07:48:46.076Z,954.19
2019-05-05T07:49:46.053Z,954.26
2019-05-05T07:50:58.196Z,954.27
2019-05-05T07:51:47.021Z,954.22
2019-05-05T07:52:46.078Z,954.24
2019-05-05T07:53:46.045Z,954.18
2019-05-05T07:54:46.026Z,954.16
2019-05-05T07:55:45.981Z,954.25
2019-05-05T07:56:45.999Z,954.16
2019-05-05T07:57:45.962Z,954.18
2019-05-05T07:58:45.938Z,954.18
2019-05-05T07:59:45.977Z,954.23
2019-05-05T08:00:45.923Z,954.17
2019-05-05T08:01:46.715Z,954.27
2019-05-05T08:02:45.906Z,954.23
2019-05-05T08:03:45.888Z,954.20
2019-05-05T08:04:45.923Z,954.30
2019-05-05T08:05:45.868Z,954.28
2019-05-05T08:06:45.851Z,954.23
2019-05-05T08:07:45.846Z,954.26
2019-05-05T08:08:45.837Z,954.31
2019-05-05T08:09:45.862Z,954.28
2019-05-05T08:10:45.807Z,954.28
2019-05-05T08:11:45.837Z,954.23
2019-05-05T08:12:45.805Z,954.24
2019-05-05T08:13:45.802Z,954.27
2019-05-05T08:14:45.766Z,954.27
2019-05-05T08:15:56.295Z,954.27
2019-05-05T08:16:46.776Z,954.29
2019-05-05T08:17:45.776Z,954.24
2019-05-05T08:18:45.718Z,954.25
2019-05-05T08:19:45.720Z,954.18
2019-05-05T08:20:45.700Z,954.18
2019-05-05T08:21:45.713Z,954.14
2019-05-05T08:22:45.730Z,954.28
2019-05-05T08:23:45.680Z,954.25
2019-05-05T08:24:45.666Z,954.26
2019-05-05T08:25:45.652Z,954.22
2019-05-05T08:26:45.698Z,954.23
2019-05-05T08:27:45.676Z,954.25
2019-05-05T08:28:45.616Z,954.26
2019-05-05T08:29:45.605Z,954.19
2019-05-05T08:30:45.599Z,954.20
2019-05-05T08:31:45.583Z,954.26
2019-05-05T08:32:45.626Z,954.18
2019-05-05T08:33:45.591Z,954.18
2019-05-05T08:34:56.870Z,954.31
2019-05-05T08:35:46.595Z,954.28
2019-05-05T08:36:45.535Z,954.26
2019-05-05T08:37:45.515Z,954.22
2019-05-05T08:38:45.514Z,954.15
2019-05-05T08:39:45.542Z,954.30
2019-05-05T08:40:45.502Z,954.19
2019-05-05T08:41:47.466Z,954.19
2019-05-05T08:42:45.463Z,954.16
2019-05-05T08:43:45.454Z,954.15
2019-05-05T08:44:45.485Z,954.25
2019-05-05T08:45:45.439Z,954.20
2019-05-05T08:46:45.464Z,954.22
2019-05-05T08:47:45.404Z,954.22
2019-05-05T08:48:45.394Z,954.27
2019-05-05T08:49:45.413Z,954.12
2019-05-05T08:50:45.365Z,954.10
2019-05-05T08:51:45.401Z,954.18
2019-05-05T08:52:45.357Z,954.27
2019-05-05T08:53:48.187Z,954.20
2019-05-05T08:54:45.333Z,954.19
2019-05-05T08:55:45.334Z,954.20
2019-05-05T08:56:45.355Z,954.18
2019-05-05T08:57:45.293Z,954.23
2019-05-05T08:58:45.317Z,954.25
2019-05-05T08:59:45.289Z,954.20
2019-05-05T09:00:45.263Z,954.19
2019-05-05T09:01:45.306Z,954.21
2019-05-05T09:02:45.246Z,954.24
2019-05-05T09:03:45.304Z,954.22
2019-05-05T09:04:45.261Z,954.21
2019-05-05T09:05:45.252Z,954.20
2019-05-05T09:06:45.201Z,954.27
2019-05-05T09:07:45.214Z,954.24
2019-05-05T09:08:45.174Z,954.11
2019-05-05T09:09:45.175Z,954.17
2019-05-05T09:10:45.201Z,954.19
2019-05-05T09:11:45.152Z,954.19
2019-05-05T09:12:45.147Z,954.20
2019-05-05T09:13:45.164Z,954.11
2019-05-05T09:14:45.112Z,954.07
2019-05-05T09:15:45.198Z,954.18
2019-05-05T09:16:45.108Z,954.15
2019-05-05T09:17:45.091Z,954.15
2019-05-05T09:18:45.081Z,954.24
2019-05-05T09:19:45.082Z,954.19
2019-05-05T09:20:45.302Z,954.26
2019-05-05T09:21:45.041Z,954.22
2019-05-05T09:22:45.031Z,954.14
2019-05-05T09:23:58.623Z,954.25
2019-05-05T09:24:46.050Z,954.20
2019-05-05T09:25:44.994Z,954.13
2019-05-05T09:26:45.016Z,954.26
2019-05-05T09:27:44.981Z,954.21
2019-05-05T09:28:44.959Z,954.16
2019-05-05T09:29:44.981Z,954.17
2019-05-05T09:30:44.972Z,954.23
2019-05-05T09:31:45.176Z,954.14
2019-05-05T09:32:44.928Z,954.20
2019-05-05T09:33:44.913Z,954.23
2019-05-05T09:34:44.906Z,954.25
2019-05-05T09:35:44.883Z,954.23
2019-05-05T09:36:44.949Z,954.13
2019-05-05T09:37:44.894Z,954.11
2019-05-05T09:38:45.089Z,954.16
2019-05-05T09:39:44.844Z,954.15
2019-05-05T09:40:44.835Z,954.22
2019-05-05T09:41:44.852Z,954.20
2019-05-05T09:42:44.861Z,954.23
2019-05-05T09:43:44.843Z,954.19
2019-05-05T09:44:44.788Z,954.13
2019-05-05T09:45:44.781Z,954.18
2019-05-05T09:46:44.772Z,954.22
2019-05-05T09:47:45.038Z,954.15
2019-05-05T09:48:44.772Z,954.27
2019-05-05T09:49:44.775Z,954.24
2019-05-05T09:50:44.730Z,954.26
2019-05-05T09:51:44.770Z,954.11
2019-05-05T09:52:44.699Z,954.32
2019-05-05T09:53:45.006Z,954.24
2019-05-05T09:54:44.684Z,954.28
2019-05-05T09:55:44.660Z,954.22
2019-05-05T09:56:44.670Z,954.21
2019-05-05T09:57:44.640Z,954.31
2019-05-05T09:58:44.672Z,954.24
2019-05-05T09:59:44.653Z,954.16
2019-05-05T10:00:44.616Z,954.14
2019-05-05T10:01:44.633Z,954.20
2019-05-05T10:02:44.623Z,954.29
2019-05-05T10:03:44.779Z,954.21
2019-05-05T10:04:44.617Z,954.21
2019-05-05T10:05:44.563Z,954.32
2019-05-05T10:06:47.709Z,954.22
2019-05-05T10:07:44.533Z,954.32
2019-05-05T10:08:44.712Z,954.31
2019-05-05T10:09:44.549Z,954.28
2019-05-05T10:10:44.509Z,954.28
2019-05-05T10:11:44.977Z,954.40
2019-05-05T10:12:44.707Z,954.29
2019-05-05T10:13:44.503Z,954.27
2019-05-05T10:14:45.019Z,954.28
2019-05-05T10:15:44.614Z,954.30
2019-05-05T10:16:44.453Z,954.32
2019-05-05T10:17:44.465Z,954.31
2019-05-05T10:18:44.909Z,954.34
2019-05-05T10:19:44.398Z,954.32
2019-05-05T10:20:44.410Z,954.29
2019-05-05T10:21:44.636Z,954.31
2019-05-05T10:22:44.369Z,954.23
2019-05-05T10:23:44.359Z,954.26
2019-05-05T10:24:44.442Z,954.21
2019-05-05T10:25:44.763Z,954.23
2019-05-05T10:26:44.333Z,954.33
2019-05-05T10:27:47.589Z,954.26
2019-05-05T10:28:44.491Z,954.33
2019-05-05T10:29:44.305Z,954.27
2019-05-05T10:30:44.319Z,954.26
2019-05-05T10:31:44.281Z,954.31
2019-05-05T10:32:44.297Z,954.30
2019-05-05T10:33:44.248Z,954.19
2019-05-05T10:34:44.370Z,954.14
2019-05-05T10:35:44.229Z,954.17
2019-05-05T10:36:44.320Z,954.18
2019-05-05T10:37:44.207Z,954.13
2019-05-05T10:38:44.552Z,954.25
2019-05-05T10:39:44.227Z,954.25
2019-05-05T10:40:44.760Z,954.17
2019-05-05T10:41:44.225Z,954.30
2019-05-05T10:42:44.263Z,954.27
2019-05-05T10:43:44.137Z,954.21
2019-05-05T10:44:44.654Z,954.19
2019-05-05T10:45:44.237Z,954.22
2019-05-05T10:46:44.109Z,954.20
2019-05-05T10:47:44.159Z,954.25
2019-05-05T10:48:44.612Z,954.16
2019-05-05T10:49:44.280Z,954.20
2019-05-05T10:50:44.527Z,954.18
2019-05-05T10:51:44.047Z,954.23
2019-05-05T10:52:44.335Z,954.28
2019-05-05T10:53:44.067Z,954.20
2019-05-05T10:54:45.007Z,954.25
2019-05-05T10:55:44.973Z,954.11
2019-05-05T10:56:43.998Z,954.15
2019-05-05T10:57:44.008Z,954.20
2019-05-05T10:58:44.258Z,954.18
2019-05-05T10:59:43.967Z,954.22
2019-05-05T11:00:44.500Z,954.16
2019-05-05T11:01:43.952Z,954.19
2019-05-05T11:02:43.940Z,954.21
2019-05-05T11:03:44.675Z,954.21
2019-05-05T11:04:44.314Z,954.25
2019-05-05T11:05:44.848Z,954.33
2019-05-05T11:06:44.166Z,954.38
2019-05-05T11:07:43.891Z,954.39
2019-05-05T11:08:45.158Z,954.34
2019-05-05T11:09:44.463Z,954.31
2019-05-05T11:10:44.977Z,954.43
2019-05-05T11:11:43.944Z,954.36
2019-05-05T11:12:44.365Z,954.40
2019-05-05T11:13:45.527Z,954.39
2019-05-05T11:14:44.454Z,954.55
2019-05-05T11:15:44.759Z,954.40
2019-05-05T11:16:44.189Z,954.45
2019-05-05T11:17:43.982Z,954.50
2019-05-05T11:18:43.798Z,954.46
2019-05-05T11:19:44.235Z,954.53
2019-05-05T11:20:44.643Z,954.54
2019-05-05T11:21:43.726Z,954.53
2019-05-05T11:22:43.871Z,954.52
2019-05-05T11:23:44.744Z,954.51
2019-05-05T11:24:55.155Z,954.52
2019-05-05T11:25:44.756Z,954.43
2019-05-05T11:26:44.578Z,954.64
2019-05-05T11:27:44.123Z,954.66
2019-05-05T11:28:44.547Z,954.61
2019-05-05T11:29:43.748Z,954.62
2019-05-05T11:30:43.636Z,954.62
2019-05-05T11:31:43.647Z,954.58
2019-05-05T11:32:44.115Z,954.58
2019-05-05T11:33:43.797Z,954.70
2019-05-05T11:34:44.264Z,954.63
2019-05-05T11:35:44.425Z,954.67
2019-05-05T11:36:43.882Z,954.66
2019-05-05T11:37:43.844Z,954.74
2019-05-05T11:38:44.607Z,954.58
2019-05-05T11:39:44.520Z,954.65
2019-05-05T11:40:43.963Z,954.65
2019-05-05T11:41:44.031Z,954.55
2019-05-05T11:42:43.518Z,954.55
2019-05-05T11:43:43.516Z,954.61
2019-05-05T11:44:43.475Z,954.54
2019-05-05T11:45:43.933Z,954.56
2019-05-05T11:46:44.302Z,954.60
2019-05-05T11:47:44.367Z,954.59
2019-05-05T11:48:44.004Z,954.52
2019-05-05T11:49:44.184Z,954.57
2019-05-05T11:50:43.762Z,954.55
2019-05-05T11:51:43.810Z,954.65
2019-05-05T11:52:44.391Z,954.61
2019-05-05T11:53:44.745Z,954.62
2019-05-05T11:54:43.861Z,954.57
2019-05-05T11:55:44.289Z,954.63
2019-05-05T11:56:44.684Z,954.47
2019-05-05T11:57:43.837Z,954.58
2019-05-05T11:58:44.284Z,954.57
2019-05-05T11:59:43.345Z,954.57
2019-05-05T12:00:43.922Z,954.50
2019-05-05T12:01:44.074Z,954.57
2019-05-05T12:02:43.948Z,954.60
2019-05-05T12:03:44.388Z,954.56
2019-05-05T12:04:43.254Z,954.49
2019-05-05T12:05:44.277Z,954.49
2019-05-05T12:06:44.292Z,954.54
2019-05-05T12:07:43.740Z,954.53
2019-05-05T12:08:45.788Z,954.56
2019-05-05T12:09:44.420Z,954.54
2019-05-05T12:10:43.914Z,954.58
2019-05-05T12:11:43.880Z,954.52
2019-05-05T12:12:44.162Z,954.57
2019-05-05T12:13:43.841Z,954.66
2019-05-05T12:14:43.152Z,954.61
2019-05-05T12:15:44.599Z,954.62
2019-05-05T12:16:43.879Z,954.63
2019-05-05T12:17:44.241Z,954.58
2019-05-05T12:18:44.841Z,954.57
2019-05-05T12:19:43.509Z,954.65
2019-05-05T12:20:44.066Z,954.69
2019-05-05T12:21:44.167Z,954.63
2019-05-05T12:22:44.773Z,954.71
2019-05-05T12:23:44.502Z,954.68
2019-05-05T12:24:44.276Z,954.68
2019-05-05T12:25:43.713Z,954.65
2019-05-05T12:26:43.726Z,954.69
2019-05-05T12:27:43.014Z,954.67
2019-05-05T12:28:43.992Z,954.63